Larkspur, Colorado
Current Conditions -  °F | °C
As of 10:12 AM on Friday 24 Oct 2014 (Local Time) from KMNH Reporting Station
Clear Clear  
Wind Chill: 66°   Ceiling: Unl
Heat Index: 66°   Visibility: 10mi
Dew Point: 21°   Wind: 9mph
Humidity: 18%   Direction: 250°WSW
Pressure: 30.3"   Gusts: NA
Location:  39.23°N, 104.89°W
Report Text: KMNH 241612Z AUTO 25008KT 10SM CLR 19/M06 A3030 RMK AO2
Loading
Personal Weather Stations






























Interactive Weather Map
Tropical Storm Tracking
New forecast layout! Learn more

10-Day Weather Forecast

Advertisements
Track Severe Weather on mobile